createdAt,value
2022-10-08T03:52:59.128Z,9.40
2022-10-08T03:55:28.045Z,9.40
2022-10-08T03:57:56.458Z,9.50
2022-10-08T04:00:24.824Z,9.50
2022-10-08T04:02:53.279Z,9.60
2022-10-08T04:05:21.590Z,9.60
2022-10-08T04:07:49.874Z,9.60
2022-10-08T04:10:19.690Z,9.60
2022-10-08T04:12:49.035Z,9.60
2022-10-08T04:15:17.685Z,9.70
2022-10-08T04:17:46.142Z,9.60
2022-10-08T04:20:14.833Z,9.60
2022-10-08T04:22:43.859Z,9.60
2022-10-08T04:25:12.649Z,9.60
2022-10-08T04:27:42.491Z,9.60
2022-10-08T04:30:11.860Z,9.50
2022-10-08T04:33:39.381Z,9.50
2022-10-08T04:36:18.354Z,9.50
2022-10-08T04:38:47.452Z,9.40
2022-10-08T04:41:18.209Z,9.40
2022-10-08T04:43:51.632Z,9.40
2022-10-08T04:46:31.126Z,9.40
2022-10-08T04:49:10.455Z,9.40
2022-10-08T04:51:57.204Z,9.30
2022-10-08T04:54:31.417Z,9.30
2022-10-08T04:57:07.003Z,9.20
2022-10-08T05:00:06.139Z,9.20
2022-10-08T05:02:36.671Z,9.20
2022-10-08T05:05:09.984Z,9.20
2022-10-08T05:07:47.285Z,9.10
2022-10-08T05:10:17.665Z,9.00
2022-10-08T05:12:47.832Z,9.00
2022-10-08T05:15:41.083Z,8.90
2022-10-08T05:18:24.988Z,8.90
2022-10-08T05:20:55.709Z,8.90
2022-10-08T05:23:38.769Z,8.80
2022-10-08T05:26:41.394Z,8.80
2022-10-08T05:29:16.918Z,8.80
2022-10-08T05:31:51.330Z,8.90
2022-10-08T05:34:21.160Z,9.00
2022-10-08T05:36:56.662Z,9.10
2022-10-08T05:39:31.473Z,9.10
2022-10-08T05:42:03.590Z,9.10
2022-10-08T05:44:45.708Z,9.10
2022-10-08T05:47:20.793Z,9.20
2022-10-08T05:49:55.454Z,9.20
2022-10-08T05:52:33.630Z,9.20
2022-10-08T05:55:09.225Z,9.30
2022-10-08T05:57:43.985Z,8.30
2022-10-08T06:00:17.117Z,9.30
2022-10-08T06:02:56.019Z,9.40
2022-10-08T06:05:35.271Z,9.40
2022-10-08T06:08:21.742Z,9.30
2022-10-08T06:11:04.898Z,9.30
2022-10-08T06:13:43.366Z,9.40
2022-10-08T06:16:29.565Z,9.40
2022-10-08T06:19:11.190Z,9.50
2022-10-08T06:21:40.403Z,9.50
2022-10-08T06:24:30.048Z,9.60
2022-10-08T06:26:59.863Z,9.60
2022-10-08T06:29:28.557Z,9.60
2022-10-08T06:32:07.057Z,9.80
2022-10-08T06:34:45.665Z,10.20
2022-10-08T06:37:31.949Z,10.30
2022-10-08T06:40:05.427Z,10.30
2022-10-08T06:42:41.807Z,10.20
2022-10-08T06:45:21.046Z,10.30
2022-10-08T06:47:53.750Z,10.30
2022-10-08T06:53:00.142Z,10.60
2022-10-08T06:55:28.589Z,10.90
2022-10-08T06:57:57.346Z,11.00
2022-10-08T07:00:25.993Z,11.10
2022-10-08T07:02:54.597Z,11.70
2022-10-08T07:05:23.029Z,12.60
2022-10-08T07:07:51.463Z,13.40
2022-10-08T07:10:21.183Z,13.70
2022-10-08T07:12:50.174Z,13.70
2022-10-08T07:15:18.646Z,13.60
2022-10-08T07:17:47.157Z,13.30
2022-10-08T07:20:15.577Z,12.90
2022-10-08T07:22:43.929Z,12.70
2022-10-08T07:25:12.328Z,12.50
2022-10-08T07:27:44.942Z,12.30
2022-10-08T07:30:13.730Z,12.20
2022-10-08T07:32:41.948Z,12.00
2022-10-08T07:35:11.144Z,11.90
2022-10-08T07:37:43.881Z,11.90
2022-10-08T07:40:12.443Z,12.00
2022-10-08T07:42:42.158Z,12.00
2022-10-08T07:45:11.329Z,12.00
2022-10-08T07:47:39.614Z,12.10
2022-10-08T07:50:08.507Z,12.20
2022-10-08T07:52:36.766Z,12.30
2022-10-08T07:55:05.437Z,12.30
2022-10-08T07:57:33.687Z,12.30
2022-10-08T08:00:04.809Z,12.40
2022-10-08T08:02:33.233Z,12.50
2022-10-08T08:05:01.657Z,12.50
2022-10-08T08:07:30.216Z,12.60
2022-10-08T08:09:58.745Z,12.60
2022-10-08T08:12:27.109Z,12.70
2022-10-08T08:14:55.789Z,12.90
2022-10-08T08:17:25.519Z,13.00
2022-10-08T08:19:53.851Z,13.10
2022-10-08T08:22:22.226Z,13.20
2022-10-08T08:24:50.512Z,13.30
2022-10-08T08:27:19.146Z,13.40
2022-10-08T08:29:47.530Z,13.50
2022-10-08T08:32:16.299Z,13.60
2022-10-08T08:34:47.094Z,13.70
2022-10-08T08:37:15.685Z,13.80
2022-10-08T08:39:44.015Z,14.00
2022-10-08T08:42:26.752Z,14.00
2022-10-08T08:45:00.448Z,14.20
2022-10-08T08:47:35.303Z,14.30
2022-10-08T08:50:09.982Z,14.50
2022-10-08T08:52:43.486Z,14.70
2022-10-08T08:55:15.974Z,15.00
2022-10-08T08:57:57.257Z,15.20
2022-10-08T09:00:36.165Z,15.30
2022-10-08T09:03:07.836Z,15.30
2022-10-08T09:05:42.658Z,15.40
2022-10-08T09:08:17.376Z,15.40
2022-10-08T09:10:52.680Z,15.50
2022-10-08T09:13:25.821Z,15.50
2022-10-08T09:15:56.067Z,15.40
2022-10-08T09:18:24.861Z,15.40
2022-10-08T09:20:54.633Z,15.60
2022-10-08T09:23:25.225Z,15.70
2022-10-08T09:25:58.547Z,15.90
2022-10-08T09:28:41.709Z,16.00
2022-10-08T09:31:26.274Z,16.10
2022-10-08T09:34:01.786Z,16.40
2022-10-08T09:36:38.551Z,16.40
2022-10-08T09:39:16.164Z,16.70
2022-10-08T09:41:47.109Z,16.70
2022-10-08T09:44:21.557Z,16.80
2022-10-08T09:46:50.841Z,17.10
2022-10-08T09:49:31.453Z,17.10
2022-10-08T09:52:06.385Z,17.10
2022-10-08T09:54:38.331Z,17.00
2022-10-08T09:57:08.219Z,16.90
2022-10-08T09:59:49.141Z,16.90
2022-10-08T10:02:32.851Z,17.00
2022-10-08T10:05:02.679Z,16.80
2022-10-08T10:07:44.229Z,16.70
2022-10-08T10:10:20.294Z,16.80
2022-10-08T10:12:51.961Z,16.90
2022-10-08T10:15:25.384Z,16.90
2022-10-08T10:17:57.028Z,17.20
2022-10-08T10:20:32.922Z,17.00
2022-10-08T10:23:06.617Z,17.00
2022-10-08T10:25:40.280Z,17.00
2022-10-08T10:28:13.974Z,16.80
2022-10-08T10:30:52.361Z,16.70
2022-10-08T10:33:24.912Z,16.80
2022-10-08T10:35:57.322Z,16.80
2022-10-08T10:38:29.500Z,16.90
2022-10-08T10:41:09.661Z,17.10
2022-10-08T10:43:50.754Z,17.20
2022-10-08T10:46:32.191Z,17.20
2022-10-08T10:49:01.669Z,16.90
2022-10-08T10:51:54.697Z,16.80
2022-10-08T10:54:41.955Z,16.70
2022-10-08T10:57:24.510Z,16.50
2022-10-08T11:00:04.193Z,15.50
2022-10-08T11:02:40.219Z,16.00
2022-10-08T11:05:17.701Z,15.90
2022-10-08T11:08:00.619Z,15.90
2022-10-08T11:10:42.720Z,15.90
2022-10-08T11:13:25.184Z,15.90
2022-10-08T11:16:02.616Z,16.00
2022-10-08T11:18:39.051Z,15.90
2022-10-08T11:21:18.721Z,15.80
2022-10-08T11:24:03.838Z,15.70
2022-10-08T11:26:40.656Z,15.50
2022-10-08T11:29:19.727Z,15.40
2022-10-08T11:31:50.586Z,15.40
2022-10-08T11:34:27.164Z,15.20
2022-10-08T11:37:07.837Z,15.00
2022-10-08T11:39:50.965Z,14.80
2022-10-08T11:42:31.585Z,14.60
2022-10-08T11:45:16.138Z,14.40
2022-10-08T11:47:51.167Z,14.30
2022-10-08T11:50:29.675Z,14.10
2022-10-08T11:53:15.059Z,14.00
2022-10-08T11:55:52.257Z,14.00
2022-10-08T11:58:26.843Z,14.00
2022-10-08T12:01:03.799Z,14.10
2022-10-08T12:03:34.823Z,14.10
2022-10-08T12:06:16.684Z,14.20
2022-10-08T12:08:54.239Z,14.30
2022-10-08T12:11:47.257Z,14.50
2022-10-08T12:14:47.662Z,14.70
2022-10-08T12:17:16.428Z,14.80
2022-10-08T12:20:05.237Z,14.90
2022-10-08T12:22:45.726Z,15.00
2022-10-08T12:25:37.528Z,15.10
2022-10-08T12:28:46.300Z,15.00
2022-10-08T12:31:40.197Z,15.10
2022-10-08T12:34:18.209Z,15.10
2022-10-08T12:37:02.961Z,15.30
2022-10-08T12:39:38.181Z,15.40
2022-10-08T12:42:16.214Z,15.50
2022-10-08T12:45:01.157Z,15.50
2022-10-08T12:47:46.020Z,15.70
2022-10-08T12:50:44.489Z,15.90
2022-10-08T12:53:17.793Z,16.10
2022-10-08T12:55:49.901Z,16.20
2022-10-08T12:58:21.330Z,16.30
2022-10-08T13:00:54.353Z,16.20
2022-10-08T13:03:25.530Z,16.20
2022-10-08T13:05:55.446Z,16.20
2022-10-08T13:08:33.405Z,16.00
2022-10-08T13:11:04.907Z,15.80
2022-10-08T13:13:46.607Z,15.60
2022-10-08T13:16:17.739Z,15.40
2022-10-08T13:18:50.123Z,15.30
2022-10-08T13:21:36.226Z,15.10
2022-10-08T13:24:20.642Z,15.00
2022-10-08T13:26:52.384Z,14.90
2022-10-08T13:29:33.623Z,14.90
2022-10-08T13:32:17.611Z,15.00
2022-10-08T13:34:50.277Z,15.10
2022-10-08T13:37:28.668Z,15.00
2022-10-08T13:39:59.055Z,15.10
2022-10-08T13:42:32.481Z,15.10
2022-10-08T13:45:02.896Z,15.10
2022-10-08T13:47:31.591Z,15.10
2022-10-08T13:50:02.318Z,15.10
2022-10-08T13:52:33.737Z,15.20
2022-10-08T13:55:05.142Z,15.30
2022-10-08T13:57:36.516Z,15.30
2022-10-08T14:00:06.794Z,15.30
2022-10-08T14:02:35.285Z,15.30
2022-10-08T14:05:05.841Z,15.30
2022-10-08T14:07:37.374Z,14.50
2022-10-08T14:10:08.172Z,15.30
2022-10-08T14:12:37.095Z,15.30
2022-10-08T14:15:11.438Z,15.30
2022-10-08T14:17:40.041Z,15.30
2022-10-08T14:20:11.385Z,15.40
2022-10-08T14:22:41.545Z,15.30
2022-10-08T14:25:16.778Z,15.20
2022-10-08T14:27:46.234Z,15.20
2022-10-08T14:30:15.844Z,15.20
2022-10-08T14:32:45.232Z,15.10
2022-10-08T14:35:15.283Z,15.00
2022-10-08T14:37:43.915Z,15.00
2022-10-08T14:40:18.008Z,15.00
2022-10-08T14:42:46.877Z,15.00
2022-10-08T14:45:15.880Z,14.70
2022-10-08T14:47:44.363Z,13.80
2022-10-08T14:50:14.569Z,13.20
2022-10-08T14:52:44.566Z,12.70
2022-10-08T14:55:14.405Z,12.50
2022-10-08T14:57:43.207Z,12.40
2022-10-08T15:00:14.414Z,12.30
2022-10-08T15:02:42.798Z,12.20
2022-10-08T15:05:11.384Z,12.30
2022-10-08T15:07:41.254Z,12.40
2022-10-08T15:10:10.482Z,12.50
2022-10-08T15:12:39.093Z,12.60
2022-10-08T15:15:09.372Z,12.50
2022-10-08T15:17:37.799Z,12.60
2022-10-08T15:20:07.015Z,12.70
2022-10-08T15:22:35.583Z,12.70
2022-10-08T15:25:06.110Z,12.60
2022-10-08T15:27:34.795Z,12.60
2022-10-08T15:30:03.089Z,12.50
2022-10-08T15:32:31.654Z,12.30
2022-10-08T15:35:00.102Z,12.20
2022-10-08T15:37:28.762Z,12.00
2022-10-08T15:39:57.292Z,11.90
2022-10-08T15:42:29.555Z,11.70
2022-10-08T15:44:58.548Z,11.60
2022-10-08T15:47:27.077Z,11.40
2022-10-08T15:49:55.542Z,11.40
2022-10-08T15:52:26.152Z,11.50
2022-10-08T15:54:54.871Z,11.50
2022-10-08T15:57:23.383Z,12.10
2022-10-08T15:59:53.765Z,11.40
2022-10-08T16:02:22.618Z,11.30
2022-10-08T16:04:57.274Z,11.30
2022-10-08T16:07:25.765Z,11.30
2022-10-08T16:09:54.209Z,11.20
2022-10-08T16:12:23.295Z,11.10
2022-10-08T16:14:53.075Z,11.10
2022-10-08T16:17:22.758Z,11.00
2022-10-08T16:19:51.193Z,11.00
2022-10-08T16:22:19.555Z,11.00
2022-10-08T16:24:49.261Z,10.90
2022-10-08T16:27:17.942Z,10.90
2022-10-08T16:29:46.558Z,10.90
2022-10-08T16:32:17.086Z,10.90
2022-10-08T16:34:53.319Z,10.90
2022-10-08T16:37:22.674Z,10.90
2022-10-08T16:39:51.726Z,10.90
2022-10-08T16:42:20.180Z,10.90
2022-10-08T16:44:48.813Z,10.80
2022-10-08T16:47:18.636Z,10.80
2022-10-08T16:49:47.122Z,10.80
2022-10-08T16:52:15.707Z,10.80
2022-10-08T16:54:44.514Z,10.70
2022-10-08T16:57:13.069Z,10.70
2022-10-08T16:59:41.962Z,10.70
2022-10-08T17:02:11.822Z,10.60
2022-10-08T17:04:41.836Z,10.60
2022-10-08T17:07:10.328Z,10.60
2022-10-08T17:09:39.154Z,10.60
2022-10-08T17:12:07.720Z,10.60
2022-10-08T17:14:38.162Z,10.60
2022-10-08T17:17:06.728Z,10.50
2022-10-08T17:19:35.275Z,10.50
2022-10-08T17:22:05.348Z,10.50
2022-10-08T17:24:40.167Z,10.50
2022-10-08T17:27:11.996Z,10.40
2022-10-08T17:29:40.379Z,10.40
2022-10-08T17:32:09.002Z,10.30
2022-10-08T17:34:37.602Z,10.30
2022-10-08T17:37:07.662Z,10.20
2022-10-08T17:39:36.236Z,10.10
2022-10-08T17:42:07.131Z,10.10
2022-10-08T17:44:35.813Z,10.10
2022-10-08T17:47:04.154Z,10.10
2022-10-08T17:49:33.020Z,10.00
2022-10-08T17:52:01.460Z,10.00
2022-10-08T17:54:31.360Z,9.90
2022-10-08T17:57:00.688Z,9.90
2022-10-08T17:59:30.061Z,9.90
2022-10-08T18:01:58.742Z,9.80
2022-10-08T18:04:27.305Z,9.80
2022-10-08T18:07:02.488Z,9.80
2022-10-08T18:09:33.434Z,9.70
2022-10-08T18:12:01.859Z,9.70
2022-10-08T18:14:30.607Z,9.60
2022-10-08T18:16:59.335Z,9.60
2022-10-08T18:19:27.929Z,9.60
2022-10-08T18:21:57.661Z,9.50
2022-10-08T18:24:27.368Z,9.50
2022-10-08T18:26:59.336Z,9.50
2022-10-08T18:29:27.738Z,9.50
2022-10-08T18:31:56.007Z,9.50
2022-10-08T18:34:25.818Z,9.50
2022-10-08T18:36:54.234Z,9.50
2022-10-08T18:39:28.307Z,9.50
2022-10-08T18:41:58.783Z,9.50
2022-10-08T18:44:28.929Z,9.40
2022-10-08T18:46:59.671Z,9.40
2022-10-08T18:49:32.431Z,9.50
2022-10-08T18:52:01.658Z,9.40
2022-10-08T18:54:30.034Z,9.40
2022-10-08T18:57:00.473Z,9.30
2022-10-08T18:59:32.208Z,9.30
2022-10-08T19:02:00.685Z,9.20
2022-10-08T19:04:33.053Z,9.20
2022-10-08T19:07:02.394Z,9.20
2022-10-08T19:09:31.399Z,9.10
2022-10-08T19:12:02.513Z,9.10
2022-10-08T19:14:30.939Z,9.10
2022-10-08T19:17:00.257Z,9.10
2022-10-08T19:19:29.622Z,9.00
2022-10-08T19:22:00.441Z,9.00
2022-10-08T19:24:30.564Z,9.00
2022-10-08T19:27:00.393Z,9.00
2022-10-08T19:29:33.755Z,9.10
2022-10-08T19:32:02.068Z,9.00
2022-10-08T19:34:30.444Z,9.00
2022-10-08T19:36:58.793Z,8.90
2022-10-08T19:39:30.325Z,8.90
2022-10-08T19:42:00.147Z,8.90
2022-10-08T19:44:28.681Z,8.90
2022-10-08T19:46:57.055Z,8.90
2022-10-08T19:49:25.498Z,8.80
2022-10-08T19:51:54.579Z,8.90
2022-10-08T19:54:22.951Z,9.00
2022-10-08T19:56:51.304Z,9.00
2022-10-08T19:59:21.821Z,9.00
2022-10-08T20:01:50.077Z,8.90
2022-10-08T20:04:18.599Z,8.90
2022-10-08T20:06:48.481Z,8.80
2022-10-08T20:09:17.124Z,8.80
2022-10-08T20:11:47.355Z,8.90
2022-10-08T20:14:16.969Z,9.90
2022-10-08T20:16:49.026Z,8.90
2022-10-08T20:19:19.442Z,8.90
2022-10-08T20:21:51.768Z,8.90
2022-10-08T20:24:20.855Z,8.90
2022-10-08T20:26:52.238Z,8.90
2022-10-08T20:29:28.681Z,8.90
2022-10-08T20:32:00.914Z,8.80
2022-10-08T20:34:31.350Z,8.90
2022-10-08T20:37:02.557Z,8.80
2022-10-08T20:39:31.321Z,9.00
2022-10-08T20:42:00.728Z,8.80
2022-10-08T20:44:29.068Z,8.80
2022-10-08T20:46:57.855Z,8.80
2022-10-08T20:49:30.697Z,8.80
2022-10-08T20:51:59.110Z,8.70
2022-10-08T20:54:27.887Z,8.70
2022-10-08T20:56:56.305Z,8.70
2022-10-08T20:59:24.827Z,8.70
2022-10-08T21:01:55.959Z,8.70
2022-10-08T21:04:24.493Z,8.70
2022-10-08T21:06:58.258Z,8.60
2022-10-08T21:09:30.398Z,8.60
2022-10-08T21:12:04.922Z,8.60
2022-10-08T21:14:34.638Z,8.60
2022-10-08T21:17:02.924Z,8.70
2022-10-08T21:19:31.340Z,8.70
2022-10-08T21:22:04.444Z,8.70
2022-10-08T21:24:33.573Z,8.60
2022-10-08T21:27:01.920Z,8.60
2022-10-08T21:29:30.270Z,8.60
2022-10-08T21:31:58.850Z,8.60
2022-10-08T21:34:27.323Z,8.60
2022-10-08T21:36:56.015Z,8.60
2022-10-08T21:39:26.257Z,8.60
2022-10-08T21:41:55.099Z,8.60
2022-10-08T21:44:23.585Z,8.60
2022-10-08T21:46:51.880Z,8.60
2022-10-08T21:49:21.673Z,8.60
2022-10-08T21:51:50.565Z,8.60
2022-10-08T21:54:21.707Z,8.60
2022-10-08T21:57:00.040Z,8.50
2022-10-08T21:59:28.654Z,8.50
2022-10-08T22:01:58.755Z,8.50
2022-10-08T22:04:27.954Z,8.50
2022-10-08T22:06:59.670Z,8.50
2022-10-08T22:09:31.078Z,8.40
2022-10-08T22:12:01.998Z,8.40
2022-10-08T22:14:30.591Z,8.40
2022-10-08T22:16:59.233Z,8.40
2022-10-08T22:19:27.695Z,8.30
2022-10-08T22:21:56.151Z,8.40
2022-10-08T22:24:24.533Z,8.40
2022-10-08T22:26:53.331Z,8.40
2022-10-08T22:29:23.196Z,8.40
2022-10-08T22:31:54.512Z,8.40
2022-10-08T22:34:23.003Z,8.30
2022-10-08T22:36:51.476Z,8.30
2022-10-08T22:39:20.094Z,8.30
2022-10-08T22:41:49.667Z,8.30
2022-10-08T22:44:19.571Z,8.20
2022-10-08T22:46:49.808Z,8.20
2022-10-08T22:49:19.007Z,8.20
